Time;durP1;ratioP1;P1;durP2;ratioP2;P2;SDS_P1;SDS_P2;PMS_P1;PMS_P2;Temp;Humidity;BMP_temperature;BMP_pressure;BME280_temperature;BME280_humidity;BME280_pressure;Samples;Min_cycle;Max_cycle;Signal;HPM_P1;HPM_P2
2023/09/30 00:00:45;;;;;;;7.50;4.60;;;;;;;18.78;nan;100360.84;5019382;28;21025;-76
2023/09/30 00:03:11;;;;;;;9.23;3.73;;;;;;;18.77;nan;100353.84;5019163;28;20205;-76
2023/09/30 00:05:37;;;;;;;7.43;4.90;;;;;;;18.82;nan;100350.78;5014995;28;20820;-77
2023/09/30 00:08:03;;;;;;;9.27;6.17;;;;;;;18.85;nan;100350.53;5024393;28;20566;-77
2023/09/30 00:10:30;;;;;;;7.83;5.03;;;;;;;18.83;nan;100355.16;5019497;28;20451;-77
2023/09/30 00:12:56;;;;;;;6.63;4.70;;;;;;;18.71;nan;100354.38;5016289;28;20920;-76
2023/09/30 00:15:21;;;;;;;8.07;4.50;;;;;;;18.60;nan;100350.91;5017965;28;20955;-77
2023/09/30 00:17:47;;;;;;;9.33;4.70;;;;;;;18.48;nan;100343.00;5023972;28;20476;-76
2023/09/30 00:20:14;;;;;;;7.20;5.20;;;;;;;18.41;nan;100341.84;5020176;28;20248;-77
2023/09/30 00:22:41;;;;;;;7.10;3.80;;;;;;;18.41;nan;100341.84;5018455;28;20233;-76
2023/09/30 00:25:07;;;;;;;6.37;4.53;;;;;;;18.43;nan;100349.69;5019376;28;20456;-76
2023/09/30 00:27:32;;;;;;;5.77;3.20;;;;;;;18.45;nan;100334.47;5020485;28;20533;-77
2023/09/30 00:29:58;;;;;;;7.33;3.93;;;;;;;18.45;nan;100327.31;5022164;28;20548;-77
2023/09/30 00:32:23;;;;;;;9.87;3.60;;;;;;;18.43;nan;100329.25;5018686;28;20940;-77
2023/09/30 00:34:48;;;;;;;5.57;2.63;;;;;;;18.41;nan;100331.19;5024583;28;20206;-76
2023/09/30 00:37:14;;;;;;;7.73;3.90;;;;;;;18.40;nan;100339.31;5022404;28;20206;-77
2023/09/30 00:39:39;;;;;;;13.90;3.60;;;;;;;18.42;nan;100345.38;5028400;28;20313;-77
2023/09/30 00:42:05;;;;;;;4.00;3.60;;;;;;;18.44;nan;100341.56;5021831;28;20639;-76
2023/09/30 00:44:31;;;;;;;7.83;3.90;;;;;;;18.50;nan;100348.22;5027138;28;20202;-76
2023/09/30 00:46:56;;;;;;;6.30;3.17;;;;;;;18.52;nan;100347.13;5026724;28;20210;-77
2023/09/30 00:49:24;;;;;;;4.57;3.33;;;;;;;18.55;nan;100351.28;5025995;28;20384;-77
2023/09/30 00:51:51;;;;;;;5.73;3.50;;;;;;;18.54;nan;100345.13;5021496;28;20995;-77
2023/09/30 00:54:18;;;;;;;6.90;4.03;;;;;;;18.51;nan;100342.75;5021045;28;20445;-77
2023/09/30 00:56:46;;;;;;;6.27;3.07;;;;;;;18.47;nan;100340.47;5024223;28;21195;-77
2023/09/30 00:59:13;;;;;;;5.87;3.53;;;;;;;18.45;nan;100343.28;5020871;28;20552;-77
2023/09/30 01:01:39;;;;;;;9.40;3.80;;;;;;;18.43;nan;100352.34;5038108;28;20448;-77
2023/09/30 01:04:05;;;;;;;5.97;4.80;;;;;;;18.38;nan;100352.72;5021372;28;20470;-77
2023/09/30 01:06:31;;;;;;;9.43;3.20;;;;;;;18.36;nan;100349.34;5023788;28;20202;-77
2023/09/30 01:08:57;;;;;;;8.83;4.00;;;;;;;18.37;nan;100344.91;5016484;28;20941;-77
2023/09/30 01:11:22;;;;;;;9.90;4.57;;;;;;;18.37;nan;100355.53;5016902;28;20448;-77
2023/09/30 01:13:49;;;;;;;6.57;3.30;;;;;;;18.35;nan;100351.19;5018546;28;20415;-77
2023/09/30 01:16:14;;;;;;;8.10;4.87;;;;;;;18.32;nan;100339.97;5022599;28;20241;-77
2023/09/30 01:18:42;;;;;;;8.53;3.90;;;;;;;18.29;nan;100348.19;5025759;28;20448;-77
2023/09/30 01:21:09;;;;;;;10.40;5.60;;;;;;;18.25;nan;100347.59;5025228;28;20914;-77
2023/09/30 01:23:35;;;;;;;8.80;4.13;;;;;;;18.20;nan;100341.84;5025870;28;20480;-77
2023/09/30 01:26:05;;;;;;;4.60;3.70;;;;;;;18.19;nan;100334.81;5027112;28;20475;-77
2023/09/30 01:28:31;;;;;;;7.50;5.53;;;;;;;18.21;nan;100340.88;5026597;28;20495;-77
2023/09/30 01:30:57;;;;;;;7.33;3.70;;;;;;;18.26;nan;100343.16;5025754;28;20440;-77
2023/09/30 01:33:23;;;;;;;7.63;4.00;;;;;;;18.31;nan;100340.94;5028688;28;20187;-77
2023/09/30 01:35:49;;;;;;;5.40;3.10;;;;;;;18.34;nan;100338.03;5027986;28;20207;-77
2023/09/30 01:38:14;;;;;;;6.87;3.77;;;;;;;18.34;nan;100336.19;5025933;28;20197;-77
2023/09/30 01:40:39;;;;;;;6.20;3.57;;;;;;;18.30;nan;100329.44;5037941;28;20467;-77
2023/09/30 01:43:05;;;;;;;6.63;3.50;;;;;;;18.24;nan;100340.59;5029812;28;20225;-77
2023/09/30 01:45:30;;;;;;;8.33;3.70;;;;;;;18.19;nan;100337.47;5021096;28;20686;-77
2023/09/30 01:47:56;;;;;;;6.87;4.00;;;;;;;18.14;nan;100334.38;5026040;28;20212;-77
2023/09/30 01:50:22;;;;;;;7.07;3.07;;;;;;;18.13;nan;100332.69;5025678;28;20445;-77
2023/09/30 01:52:48;;;;;;;6.73;4.33;;;;;;;18.13;nan;100325.56;5028005;28;20190;-77
2023/09/30 01:55:13;;;;;;;5.63;3.07;;;;;;;18.12;nan;100326.53;5025066;28;20321;-77
2023/09/30 01:57:38;;;;;;;8.57;3.87;;;;;;;18.12;nan;100325.69;5035523;28;20205;-77
2023/09/30 02:00:05;;;;;;;6.33;2.90;;;;;;;18.13;nan;100332.69;5040179;28;20198;-77
2023/09/30 02:02:38;;;;;;;6.27;3.50;;;;;;;18.10;nan;100330.28;5025241;28;20203;-77
2023/09/30 02:05:04;;;;;;;7.80;2.83;;;;;;;18.08;nan;100337.53;5026741;28;20465;-77
2023/09/30 02:07:30;;;;;;;5.53;3.40;;;;;;;18.02;nan;100344.22;5033496;28;20205;-77
2023/09/30 02:09:55;;;;;;;5.13;3.33;;;;;;;17.99;nan;100340.97;5027587;28;20459;-77
2023/09/30 02:12:21;;;;;;;7.70;3.40;;;;;;;17.93;nan;100347.66;5026844;28;20498;-77
2023/09/30 02:14:46;;;;;;;6.70;3.10;;;;;;;17.88;nan;100340.03;5028417;28;20282;-77
2023/09/30 02:17:13;;;;;;;4.57;3.37;;;;;;;17.88;nan;100342.72;5030615;28;20218;-77
2023/09/30 02:19:40;;;;;;;11.07;3.43;;;;;;;17.88;nan;100345.38;5032173;28;20201;-76
2023/09/30 02:22:06;;;;;;;5.83;3.20;;;;;;;17.79;nan;100342.59;5027208;28;20458;-76
2023/09/30 02:24:32;;;;;;;11.67;3.70;;;;;;;17.68;nan;100356.75;5031953;28;21192;-77
2023/09/30 02:26:57;;;;;;;5.40;3.50;;;;;;;17.60;nan;100346.72;5030153;28;20480;-77
2023/09/30 02:29:23;;;;;;;7.23;3.70;;;;;;;17.53;nan;100342.06;5029232;28;20197;-77
2023/09/30 02:31:48;;;;;;;9.67;4.37;;;;;;;17.46;nan;100339.03;5027407;28;20461;-77
2023/09/30 02:34:14;;;;;;;6.97;3.90;;;;;;;17.44;nan;100339.19;5034749;28;20202;-77
2023/09/30 02:36:41;;;;;;;4.57;3.03;;;;;;;17.43;nan;100337.47;5029883;28;20316;-76
2023/09/30 02:39:09;;;;;;;6.03;3.40;;;;;;;17.45;nan;100338.22;5031446;28;20484;-77
2023/09/30 02:41:35;;;;;;;10.10;4.87;;;;;;;17.48;nan;100340.59;5029066;28;20448;-77
2023/09/30 02:44:01;;;;;;;6.50;3.50;;;;;;;17.48;nan;100343.25;5031305;28;20473;-77
2023/09/30 02:46:28;;;;;;;7.93;3.90;;;;;;;17.49;nan;100354.72;5032114;28;20456;-77
2023/09/30 02:48:53;;;;;;;4.03;3.03;;;;;;;17.47;nan;100365.50;5029215;28;20436;-77
2023/09/30 02:51:19;;;;;;;5.10;2.80;;;;;;;17.46;nan;100369.09;5029774;28;20964;-77
2023/09/30 02:53:46;;;;;;;5.57;2.93;;;;;;;17.46;nan;100365.59;5027348;28;20445;-77
2023/09/30 02:56:11;;;;;;;4.70;3.47;;;;;;;17.46;nan;100366.44;5029440;28;20209;-77
2023/09/30 02:58:38;;;;;;;5.73;2.90;;;;;;;17.46;nan;100354.97;5028125;28;20474;-77
2023/09/30 03:01:03;;;;;;;5.67;3.37;;;;;;;17.44;nan;100362.22;5030582;28;20937;-77
2023/09/30 03:03:30;;;;;;;4.60;2.83;;;;;;;17.43;nan;100363.19;5045626;28;20469;-77
2023/09/30 03:05:57;;;;;;;5.73;4.73;;;;;;;17.40;nan;100361.63;5038740;28;20218;-77
2023/09/30 03:08:25;;;;;;;5.37;3.20;;;;;;;17.36;nan;100370.81;5035374;28;20443;-77
2023/09/30 03:10:50;;;;;;;5.30;3.60;;;;;;;17.31;nan;100375.66;5035230;28;20448;-77
2023/09/30 03:13:18;;;;;;;4.97;2.70;;;;;;;17.27;nan;100382.16;5037388;28;20452;-76
2023/09/30 03:15:44;;;;;;;8.20;3.23;;;;;;;17.27;nan;100384.81;5031084;28;20210;-77
2023/09/30 03:18:09;;;;;;;8.70;4.00;;;;;;;17.27;nan;100389.28;5024840;28;20461;-76
2023/09/30 03:20:36;;;;;;;8.73;3.60;;;;;;;17.28;nan;100380.34;5032764;28;20204;-77
2023/09/30 03:23:04;;;;;;;4.63;2.90;;;;;;;17.28;nan;100369.72;5029543;28;20626;-77
2023/09/30 03:25:30;;;;;;;5.30;2.27;;;;;;;17.25;nan;100368.16;5030534;28;20484;-77
2023/09/30 03:27:56;;;;;;;5.27;2.80;;;;;;;17.20;nan;100371.19;5026997;28;20451;-77
2023/09/30 03:30:22;;;;;;;4.13;3.30;;;;;;;17.14;nan;100357.56;5028847;28;20446;-77
2023/09/30 03:32:48;;;;;;;5.47;2.80;;;;;;;17.10;nan;100348.16;5033258;28;20443;-77
2023/09/30 03:35:17;;;;;;;5.10;3.03;;;;;;;17.06;nan;100344.03;5032108;28;20226;-77
2023/09/30 03:37:46;;;;;;;6.47;3.63;;;;;;;17.03;nan;100337.16;5029904;28;20988;-77
2023/09/30 03:40:14;;;;;;;7.80;4.07;;;;;;;16.98;nan;100332.22;5027466;28;20845;-77
2023/09/30 03:42:42;;;;;;;4.93;2.90;;;;;;;16.94;nan;100325.47;5028163;28;20483;-77
2023/09/30 03:45:09;;;;;;;6.80;3.17;;;;;;;16.91;nan;100320.41;5030221;28;20456;-77
2023/09/30 03:47:35;;;;;;;6.13;2.57;;;;;;;16.83;nan;100312.22;5028036;28;20517;-77
2023/09/30 03:50:03;;;;;;;3.53;3.23;;;;;;;16.77;nan;100313.53;5031730;28;20474;-77
2023/09/30 03:52:32;;;;;;;3.17;2.10;;;;;;;16.74;nan;100310.22;5032164;28;20441;-77
2023/09/30 03:55:04;;;;;;;5.57;3.20;;;;;;;16.71;nan;100311.31;5030257;28;20514;-77
2023/09/30 03:57:36;;;;;;;4.00;2.70;;;;;;;16.71;nan;100310.47;5022884;28;20542;-79
2023/09/30 04:00:05;;;;;;;5.80;3.00;;;;;;;16.71;nan;100326.38;5025876;28;20554;-79
2023/09/30 04:02:37;;;;;;;5.27;2.90;;;;;;;16.70;nan;100335.31;5023262;28;20464;-78
2023/09/30 04:05:05;;;;;;;5.50;2.50;;;;;;;16.66;nan;100340.03;5023084;28;20454;-79
2023/09/30 04:07:31;;;;;;;5.67;2.93;;;;;;;16.63;nan;100340.22;5024763;28;20212;-78
2023/09/30 04:09:56;;;;;;;4.47;2.20;;;;;;;16.58;nan;100339.78;5030787;28;20463;-78
2023/09/30 04:12:23;;;;;;;5.53;2.70;;;;;;;16.51;nan;100336.72;5025853;28;20443;-79
2023/09/30 04:14:49;;;;;;;4.37;2.77;;;;;;;16.48;nan;100341.44;5023701;28;20254;-79
2023/09/30 04:17:14;;;;;;;3.37;1.90;;;;;;;16.47;nan;100340.59;5020611;28;21017;-78
2023/09/30 04:19:40;;;;;;;5.07;2.60;;;;;;;16.47;nan;100348.56;5022262;28;20530;-78
2023/09/30 04:22:05;;;;;;;7.50;3.43;;;;;;;16.44;nan;100348.75;5020452;28;20232;-78
2023/09/30 04:24:31;;;;;;;6.43;2.87;;;;;;;16.37;nan;100360.81;5023088;28;20266;-78
2023/09/30 04:26:57;;;;;;;3.13;2.10;;;;;;;16.28;nan;100356.19;5021430;28;20201;-78
2023/09/30 04:29:23;;;;;;;4.43;2.70;;;;;;;16.22;nan;100367.25;5023640;28;20677;-78
2023/09/30 04:31:48;;;;;;;6.57;2.87;;;;;;;16.20;nan;100369.19;5021406;28;20443;-78
2023/09/30 04:34:14;;;;;;;8.47;3.33;;;;;;;16.20;nan;100374.47;5023872;28;21041;-78
2023/09/30 04:36:40;;;;;;;5.97;3.05;;;;;;;16.20;nan;100363.88;5023592;28;20483;-78
2023/09/30 04:39:05;;;;;;;8.37;3.07;;;;;;;16.13;nan;100372.28;5019913;28;20215;-78
2023/09/30 04:41:31;;;;;;;8.07;3.17;;;;;;;16.04;nan;100365.03;5023530;28;20212;-78
2023/09/30 04:43:56;;;;;;;6.10;2.90;;;;;;;16.00;nan;100360.06;5022229;28;20220;-78
2023/09/30 04:46:23;;;;;;;5.13;3.00;;;;;;;15.97;nan;100363.78;5024512;28;20245;-80
2023/09/30 04:48:51;;;;;;;7.35;2.80;;;;;;;15.98;nan;100370.78;5025635;28;20203;-77
2023/09/30 04:51:18;;;;;;;6.47;3.05;;;;;;;16.01;nan;100385.59;5020428;28;20207;-77
2023/09/30 04:53:46;;;;;;;3.70;2.65;;;;;;;15.97;nan;100386.81;5024314;28;20198;-77
2023/09/30 04:56:12;;;;;;;8.02;3.25;;;;;;;15.92;nan;100395.09;5021493;28;20207;-77
2023/09/30 04:58:38;;;;;;;6.32;3.10;;;;;;;15.90;nan;100397.84;5023312;28;20200;-77
2023/09/30 05:01:03;;;;;;;4.83;2.50;;;;;;;15.89;nan;100401.44;5025053;28;20217;-78
2023/09/30 05:03:28;;;;;;;5.00;3.40;;;;;;;15.89;nan;100413.84;5025199;28;20211;-77
2023/09/30 05:05:58;;;;;;;4.20;2.40;;;;;;;15.80;nan;100417.19;5023895;28;20890;-78
2023/09/30 05:08:24;;;;;;;2.40;1.90;;;;;;;15.68;nan;100414.44;5021619;28;21004;-78
2023/09/30 05:10:49;;;;;;;3.90;2.15;;;;;;;15.58;nan;100400.16;5022481;28;20700;-78
2023/09/30 05:13:15;;;;;;;3.13;2.27;;;;;;;15.51;nan;100395.41;5023062;28;20700;-79
2023/09/30 05:15:41;;;;;;;5.40;2.77;;;;;;;15.49;nan;100385.75;5023726;28;20204;-78
2023/09/30 05:18:08;;;;;;;2.00;1.80;;;;;;;15.50;nan;100383.97;5025464;28;20738;-78
2023/09/30 05:20:36;;;;;;;4.05;2.05;;;;;;;15.49;nan;100388.41;5020723;28;20206;-79
2023/09/30 05:23:02;;;;;;;3.50;1.65;;;;;;;15.47;nan;100389.47;5022458;28;20673;-78
2023/09/30 05:25:28;;;;;;;2.65;1.60;;;;;;;15.43;nan;100391.50;5023976;28;20253;-78
2023/09/30 05:27:54;;;;;;;3.20;1.70;;;;;;;15.47;nan;100398.28;5024761;28;20269;-78
2023/09/30 05:30:20;;;;;;;2.30;1.67;;;;;;;15.47;nan;100387.69;5027195;28;20277;-78
2023/09/30 05:32:46;;;;;;;4.37;3.80;;;;;;;15.49;nan;100388.41;5019669;28;20202;-78
2023/09/30 05:35:16;;;;;;;10.65;3.25;;;;;;;15.50;nan;100394.56;5017333;28;20479;-78
2023/09/30 05:37:43;;;;;;;6.13;2.55;;;;;;;15.48;nan;100399.13;5021253;28;20242;-79
2023/09/30 05:40:21;;;;;;;4.95;2.00;;;;;;;15.47;nan;100398.28;5020006;28;20195;-78
2023/09/30 05:42:48;;;;;;;6.57;1.80;;;;;;;15.45;nan;100394.06;5023361;28;20277;-78
2023/09/30 05:45:13;;;;;;;3.83;2.20;;;;;;;15.43;nan;100386.22;5020561;28;20625;-79
2023/09/30 05:47:40;;;;;;;3.77;2.53;;;;;;;15.44;nan;100384.41;5025109;28;20718;-79
2023/09/30 05:50:07;;;;;;;5.65;3.47;;;;;;;15.42;nan;100394.28;5023257;28;20231;-79
2023/09/30 05:52:33;;;;;;;3.75;2.55;;;;;;;15.43;nan;100409.19;5027761;28;20195;-79
2023/09/30 05:55:00;;;;;;;4.95;3.25;;;;;;;15.44;nan;100424.09;5026259;28;20206;-79
2023/09/30 05:57:26;;;;;;;6.70;2.42;;;;;;;15.48;nan;100436.19;5023674;28;20298;-79
2023/09/30 05:59:52;;;;;;;6.60;3.87;;;;;;;15.53;nan;100431.41;5025664;28;20290;-78
2023/09/30 06:02:17;;;;;;;6.03;2.97;;;;;;;15.58;nan;100441.66;5023402;28;20441;-79
2023/09/30 06:04:42;;;;;;;4.80;2.80;;;;;;;15.58;nan;100428.41;5028096;28;20276;-78
2023/09/30 06:07:08;;;;;;;5.93;3.20;;;;;;;15.60;nan;100423.88;5025908;28;20985;-78
2023/09/30 06:09:34;;;;;;;5.37;3.37;;;;;;;15.65;nan;100427.03;5023307;28;20938;-78
2023/09/30 06:12:03;;;;;;;7.10;5.80;;;;;;;15.69;nan;100408.22;5023719;28;20203;-78
2023/09/30 06:14:30;;;;;;;7.80;5.30;;;;;;;15.75;nan;100398.13;5025659;28;20269;-78
2023/09/30 06:16:56;;;;;;;9.85;6.45;;;;;;;15.78;nan;100401.38;5026750;28;20747;-78
2023/09/30 06:19:21;;;;;;;5.73;4.03;;;;;;;15.85;nan;100407.06;5040449;28;20286;-78
2023/09/30 06:21:47;;;;;;;5.40;3.87;;;;;;;15.95;nan;100418.69;5028176;28;20862;-78
2023/09/30 06:24:12;;;;;;;5.03;3.20;;;;;;;16.05;nan;100427.69;5026309;28;20220;-78
2023/09/30 06:26:38;;;;;;;4.00;3.20;;;;;;;16.11;nan;100435.16;5027539;28;20680;-79
2023/09/30 06:29:03;;;;;;;6.43;3.83;;;;;;;16.16;nan;100426.88;5028119;28;20847;-78
2023/09/30 06:31:28;;;;;;;4.80;1.80;;;;;;;16.17;nan;100438.31;5028478;28;20269;-78
2023/09/30 06:33:58;;;;;;;2.17;1.90;;;;;;;16.11;nan;100419.25;5022325;28;20207;-78
2023/09/30 06:36:23;;;;;;;4.78;2.63;;;;;;;16.07;nan;100423.13;5023278;28;20437;-78
2023/09/30 06:38:50;;;;;;;4.67;2.80;;;;;;;16.04;nan;100430.41;5027459;28;20201;-78
2023/09/30 06:41:19;;;;;;;6.75;2.38;;;;;;;16.04;nan;100441.03;5024410;28;20206;-78
2023/09/30 06:43:45;;;;;;;3.08;2.42;;;;;;;16.06;nan;100442.59;5025482;28;20216;-78
2023/09/30 06:46:10;;;;;;;3.27;1.97;;;;;;;16.08;nan;100440.69;5023292;28;20198;-78
2023/09/30 06:48:42;;;;;;;3.97;2.80;;;;;;;16.11;nan;100442.28;5027868;28;20214;-78
2023/09/30 06:51:08;;;;;;;3.90;2.40;;;;;;;16.18;nan;100455.94;5025632;28;20205;-78
2023/09/30 06:53:33;;;;;;;3.63;2.23;;;;;;;16.25;nan;100465.13;5021504;28;20200;-78
2023/09/30 06:55:59;;;;;;;4.10;3.60;;;;;;;16.29;nan;100466.59;5091288;22;20287;-91
2023/09/30 06:58:30;;;;;;;4.77;2.60;;;;;;;16.33;nan;100471.53;5030683;28;20253;-91
2023/09/30 07:00:58;;;;;;;5.50;4.40;;;;;;;16.37;nan;100464.22;5035201;28;20470;-91
2023/09/30 07:03:26;;;;;;;3.13;2.83;;;;;;;16.40;nan;100471.94;5035206;28;20309;-91
2023/09/30 07:05:54;;;;;;;7.63;3.30;;;;;;;16.45;nan;100476.91;5033680;28;20270;-91
2023/09/30 07:08:29;;;;;;;4.15;3.30;;;;;;;16.56;nan;100472.50;5032527;28;20216;-91
2023/09/30 07:10:57;;;;;;;7.38;2.70;;;;;;;16.73;nan;100481.00;5052085;28;20251;-91
2023/09/30 07:13:42;;;;;;;;;;;;;;;;;;;;;
2023/09/30 07:16:08;;;;;;;3.28;2.70;;;;;;;17.09;nan;100474.69;5055237;28;20209;-91
2023/09/30 07:18:33;;;;;;;9.10;3.40;;;;;;;17.22;nan;100469.28;5048423;28;20231;-90
2023/09/30 07:20:59;;;;;;;4.77;3.17;;;;;;;17.34;nan;100473.66;5018579;28;20216;-90
2023/09/30 07:23:35;;;;;;;6.40;3.20;;;;;;;17.47;nan;100471.75;5025030;28;20488;-91
2023/09/30 07:26:01;;;;;;;4.50;3.17;;;;;;;17.61;nan;100475.13;5029752;28;20448;-92
2023/09/30 07:28:29;;;;;;;4.10;2.60;;;;;;;17.72;nan;100472.44;5022634;28;20233;-90
2023/09/30 07:30:57;;;;;;;4.93;2.93;;;;;;;17.82;nan;100462.81;5005593;28;20203;-91
2023/09/30 07:33:25;;;;;;;6.10;3.33;;;;;;;17.92;nan;100466.41;5009222;28;20733;-91
2023/09/30 07:35:55;;;;;;;8.82;3.60;;;;;;;18.04;nan;100479.69;5007264;28;20441;-90
2023/09/30 07:38:33;;;;;;;7.93;4.30;;;;;;;18.16;nan;100489.31;5006728;28;20839;-91
2023/09/30 07:41:03;;;;;;;5.50;3.40;;;;;;;18.27;nan;100499.06;5008093;28;20456;-91
2023/09/30 07:43:33;;;;;;;5.03;3.80;;;;;;;18.32;nan;100500.38;4990396;28;20568;-90
2023/09/30 07:46:15;;;;;;;8.33;3.53;;;;;;;18.33;nan;100499.44;5011539;28;20978;-90
2023/09/30 07:48:44;;;;;;;6.37;3.07;;;;;;;18.34;nan;100493.13;5012034;28;20441;-92
2023/09/30 07:51:13;;;;;;;5.67;2.67;;;;;;;18.35;nan;100473.53;4997910;28;20481;-91
2023/09/30 07:53:42;;;;;;;7.27;4.73;;;;;;;18.40;nan;100488.28;4996853;28;20202;-92
2023/09/30 07:56:10;;;;;;;5.03;3.67;;;;;;;18.39;nan;100495.41;5006208;28;20481;-91
2023/09/30 07:58:43;;;;;;;8.30;3.80;;;;;;;18.42;nan;100489.00;5007689;28;20433;-90
2023/09/30 08:01:14;;;;;;;6.17;3.03;;;;;;;18.46;nan;100480.63;5006587;28;20502;-91
2023/09/30 08:03:47;;;;;;;4.13;2.53;;;;;;;18.59;nan;100488.44;4995981;28;20449;-91
2023/09/30 08:06:30;;;;;;;;;;;;;;;;;;;;;
2023/09/30 08:08:56;;;;;;;7.30;3.07;;;;;;;19.09;nan;100478.03;5002844;28;20532;-93
2023/09/30 08:11:37;;;;;;;5.33;3.17;;;;;;;19.27;nan;100482.75;5005043;28;20456;-91
2023/09/30 08:14:15;;;;;;;4.80;3.07;;;;;;;19.41;nan;100463.75;5004844;28;20852;-91
2023/09/30 08:16:50;;;;;;;;;;;;;;;;;;;;;
2023/09/30 08:19:22;;;;;;;6.77;3.53;;;;;;;19.78;nan;100468.56;5005971;28;20451;-90
2023/09/30 08:21:52;;;;;;;11.17;3.60;;;;;;;20.16;nan;100458.94;5006069;28;20555;-91
2023/09/30 08:24:20;;;;;;;5.77;3.00;;;;;;;20.54;nan;100463.47;5007770;28;21131;-92
2023/09/30 08:26:51;;;;;;;4.90;3.37;;;;;;;20.83;nan;100465.28;4993663;28;20491;-91
2023/09/30 08:29:26;;;;;;;5.90;3.37;;;;;;;21.13;nan;100464.25;5008403;28;20826;-91
2023/09/30 08:31:56;;;;;;;3.77;2.63;;;;;;;21.47;nan;100466.41;5004999;28;20821;-90
2023/09/30 08:34:25;;;;;;;3.23;2.77;;;;;;;21.63;nan;100472.81;5004658;28;20420;-90
2023/09/30 08:36:53;;;;;;;4.07;2.70;;;;;;;21.57;nan;100486.75;5010441;28;20469;-91
2023/09/30 08:39:24;;;;;;;4.90;2.90;;;;;;;21.39;nan;100497.38;5013602;28;20449;-90
2023/09/30 08:41:53;;;;;;;4.03;2.60;;;;;;;21.23;nan;100496.28;5014648;28;20445;-91
2023/09/30 08:44:29;;;;;;;3.50;3.07;;;;;;;21.02;nan;100501.81;5017373;28;20461;-91
2023/09/30 08:47:11;;;;;;;4.90;2.73;;;;;;;20.72;nan;100509.00;4989756;28;20851;-90
2023/09/30 08:49:43;;;;;;;5.13;2.90;;;;;;;20.57;nan;100510.41;5017889;28;20525;-89
2023/09/30 08:52:14;;;;;;;4.73;3.43;;;;;;;20.47;nan;100505.88;5019749;28;20435;-92
2023/09/30 08:54:44;;;;;;;4.80;3.30;;;;;;;20.43;nan;100501.78;5011363;28;20445;-92
2023/09/30 08:57:21;;;;;;;7.17;3.47;;;;;;;20.39;nan;100500.41;4994081;28;20471;-91
2023/09/30 09:00:11;;;;;;;6.13;3.60;;;;;;;20.38;nan;100493.34;5012091;28;20557;-92
2023/09/30 09:02:36;;;;;;;5.67;3.50;;;;;;;20.51;nan;100493.94;5006659;28;20485;-90
2023/09/30 09:05:06;;;;;;;4.80;3.50;;;;;;;20.73;nan;100500.00;5012608;28;20469;-91
2023/09/30 09:07:47;;;;;;;6.63;3.20;;;;;;;21.04;nan;100492.66;5011590;28;20208;-91
2023/09/30 09:10:13;;;;;;;5.83;3.20;;;;;;;21.37;nan;100494.00;5018351;28;20447;-91
2023/09/30 09:13:08;;;;;;;5.43;2.83;;;;;;;21.53;nan;100477.34;5013748;28;21430;-91
2023/09/30 09:15:46;;;;;;;7.80;3.57;;;;;;;21.76;nan;100476.97;5009633;28;20216;-92
2023/09/30 09:18:49;;;;;;;;;;;;;;;;;;;;;
2023/09/30 09:21:26;;;;;;;4.23;2.73;;;;;;;22.11;nan;100465.47;5029397;28;20549;-90
2023/09/30 09:24:27;;;;;;;4.93;3.17;;;;;;;22.05;nan;100456.22;5035978;28;20493;-91
2023/09/30 09:27:17;;;;;;;3.47;2.03;;;;;;;22.04;nan;100461.75;5035364;28;20490;-92
2023/09/30 09:29:48;;;;;;;3.97;2.37;;;;;;;22.16;nan;100451.66;5050825;23;20491;-79
2023/09/30 09:35:01;;;;;;;4.20;2.80;;;;;;;22.21;nan;100431.50;4039106;26;20288;-80
2023/09/30 09:37:27;;;;;;;4.25;2.60;;;;;;;22.29;nan;100430.75;4978738;28;20640;-79
2023/09/30 09:39:57;;;;;;;3.30;2.93;;;;;;;22.46;nan;100421.03;4979825;28;20749;-80
2023/09/30 09:42:30;;;;;;;3.33;2.70;;;;;;;22.69;nan;100416.84;4980924;28;20299;-80
2023/09/30 09:45:02;;;;;;;3.87;2.20;;;;;;;22.84;nan;100408.25;4983003;28;20520;-77
2023/09/30 09:47:31;;;;;;;5.80;3.63;;;;;;;22.93;nan;100408.16;4981065;28;20458;-77
2023/09/30 09:49:58;;;;;;;9.43;3.10;;;;;;;23.00;nan;100413.72;4980480;28;20780;-77
2023/09/30 09:52:24;;;;;;;4.97;2.80;;;;;;;23.05;nan;100419.47;4981242;28;20491;-77
2023/09/30 09:54:51;;;;;;;5.40;2.87;;;;;;;23.14;nan;100412.28;4981161;28;20788;-78
2023/09/30 09:57:18;;;;;;;6.50;3.17;;;;;;;23.22;nan;100406.16;4980974;28;20436;-80
2023/09/30 09:59:47;;;;;;;6.80;2.90;;;;;;;23.31;nan;100413.25;4985054;28;20545;-80
2023/09/30 10:02:14;;;;;;;3.70;3.00;;;;;;;23.31;nan;100411.41;4981421;28;20462;-78
2023/09/30 10:04:47;;;;;;;6.13;3.37;;;;;;;23.34;nan;100407.56;4981345;28;20566;-77
2023/09/30 10:07:16;;;;;;;3.70;3.13;;;;;;;23.31;nan;100416.75;4981324;28;20437;-77
2023/09/30 10:09:47;;;;;;;4.90;2.67;;;;;;;23.26;nan;100416.41;4981837;28;20452;-77
2023/09/30 10:12:15;;;;;;;5.60;2.70;;;;;;;23.30;nan;100419.59;4980649;28;20552;-79
2023/09/30 10:14:40;;;;;;;3.03;2.73;;;;;;;23.42;nan;100416.47;4982584;28;20516;-78
2023/09/30 10:17:05;;;;;;;7.33;2.90;;;;;;;23.54;nan;100405.44;4979675;28;21000;-76
2023/09/30 10:19:32;;;;;;;5.07;2.40;;;;;;;23.62;nan;100403.63;4980259;28;20206;-76
2023/09/30 10:22:16;;;;;;;4.30;2.10;;;;;;;23.70;nan;100397.44;4980631;28;20651;-76
2023/09/30 10:24:42;;;;;;;7.73;2.50;;;;;;;23.76;nan;100394.16;4971334;28;20447;-78
2023/09/30 10:27:31;;;;;;;3.00;2.10;;;;;;;23.83;nan;100399.69;4979312;28;20950;-78
2023/09/30 10:30:10;;;;;;;2.83;2.10;;;;;;;23.81;nan;100388.28;4979110;28;20239;-78
2023/09/30 10:33:05;;;;;;;4.07;2.40;;;;;;;23.78;nan;100389.44;4980644;28;20808;-76
2023/09/30 10:35:30;;;;;;;6.20;3.03;;;;;;;23.77;nan;100385.09;4971246;28;20539;-76
2023/09/30 10:38:21;;;;;;;3.60;2.20;;;;;;;23.86;nan;100394.00;4980446;28;20484;-76
2023/09/30 10:40:46;;;;;;;4.93;3.00;;;;;;;23.89;nan;100385.63;4981735;28;20228;-76
2023/09/30 10:43:38;;;;;;;8.83;3.00;;;;;;;23.94;nan;100387.81;4980035;28;20990;-76
2023/09/30 10:46:24;;;;;;;3.13;2.40;;;;;;;23.89;nan;100393.66;4980072;28;20625;-76
2023/09/30 10:48:50;;;;;;;3.23;2.83;;;;;;;23.81;nan;100388.28;4981773;28;21077;-76
2023/09/30 10:51:18;;;;;;;4.33;2.47;;;;;;;23.81;nan;100383.75;4980080;28;20971;-76
2023/09/30 10:53:46;;;;;;;3.90;2.90;;;;;;;23.86;nan;100388.63;4980077;28;20633;-76
2023/09/30 10:56:13;;;;;;;4.70;2.73;;;;;;;23.88;nan;100392.00;4978743;28;20567;-76
2023/09/30 10:58:39;;;;;;;5.10;2.57;;;;;;;23.79;nan;100382.25;4980563;28;20833;-76
2023/09/30 11:01:04;;;;;;;5.27;2.50;;;;;;;23.80;nan;100375.88;4979585;28;20533;-76
2023/09/30 11:03:30;;;;;;;6.20;2.47;;;;;;;23.86;nan;100383.28;4978872;28;20471;-76
2023/09/30 11:05:55;;;;;;;3.30;3.00;;;;;;;23.92;nan;100382.59;4980924;28;20203;-75
2023/09/30 11:08:23;;;;;;;6.40;2.30;;;;;;;24.00;nan;100384.47;4980081;28;20192;-76
2023/09/30 11:10:52;;;;;;;5.83;3.93;;;;;;;24.04;nan;100377.78;4978672;28;20207;-76
2023/09/30 11:13:18;;;;;;;8.50;3.20;;;;;;;24.08;nan;100377.25;4979764;28;20522;-76
2023/09/30 11:15:45;;;;;;;7.80;3.30;;;;;;;24.09;nan;100380.81;4980022;28;20828;-76
2023/09/30 11:18:18;;;;;;;3.97;3.10;;;;;;;24.03;nan;100374.25;4979626;28;20253;-77
2023/09/30 11:20:44;;;;;;;5.47;2.97;;;;;;;24.07;nan;100372.06;4979627;28;20471;-76
2023/09/30 11:23:11;;;;;;;5.10;2.90;;;;;;;24.06;nan;100373.06;4979656;28;20525;-76
2023/09/30 11:25:37;;;;;;;5.60;3.10;;;;;;;23.99;nan;100367.53;4980122;28;20425;-76
2023/09/30 11:28:19;;;;;;;5.53;3.23;;;;;;;23.97;nan;100366.84;4980286;28;20411;-76
2023/09/30 11:30:58;;;;;;;7.97;3.67;;;;;;;23.95;nan;100362.66;4979137;28;20891;-76
2023/09/30 11:33:24;;;;;;;7.03;3.63;;;;;;;23.94;nan;100360.97;4978417;28;20990;-76
2023/09/30 11:36:06;;;;;;;11.03;5.47;;;;;;;23.95;nan;100360.84;4979558;28;20816;-77
2023/09/30 11:38:35;;;;;;;11.50;6.03;;;;;;;23.99;nan;100351.44;4979660;28;21051;-77
2023/09/30 11:41:06;;;;;;;10.50;5.07;;;;;;;24.03;nan;100347.41;4980143;28;20421;-78
2023/09/30 11:43:34;;;;;;;11.17;4.93;;;;;;;24.11;nan;100351.09;4979328;28;20476;-76
2023/09/30 11:46:10;;;;;;;12.57;6.43;;;;;;;24.14;nan;100348.94;4979602;28;20723;-77
2023/09/30 11:48:37;;;;;;;11.60;7.17;;;;;;;24.15;nan;100349.78;4980090;28;20843;-76
2023/09/30 11:51:03;;;;;;;10.30;4.90;;;;;;;24.19;nan;100346.56;4979502;28;20455;-77
2023/09/30 11:53:35;;;;;;;10.27;5.70;;;;;;;24.25;nan;100347.75;4979559;28;20486;-77
2023/09/30 11:56:02;;;;;;;9.60;5.83;;;;;;;24.28;nan;100345.56;4978272;28;20435;-77